Time;durP1;ratioP1;P1;durP2;ratioP2;P2;SDS_P1;SDS_P2;PMS_P1;PMS_P2;Temp;Humidity;BMP_temperature;BMP_pressure;BME280_temperature;BME280_humidity;BME280_pressure;Samples;Min_cycle;Max_cycle;Signal;HPM_P1;HPM_P2
2023/10/13 00:01:13;;;;;;;59.50;56.60;;;;;;;8.49;100.00;101155.34;5023796;28;20851;-38
2023/10/13 00:03:41;;;;;;;60.90;57.70;;;;;;;8.60;100.00;101149.69;5021132;28;20520;-40
2023/10/13 00:06:08;;;;;;;62.67;59.13;;;;;;;8.70;100.00;101145.78;5020551;28;20472;-39
2023/10/13 00:08:38;;;;;;;62.73;59.53;;;;;;;8.80;100.00;101143.75;5023911;28;20520;-41
2023/10/13 00:11:09;;;;;;;64.80;62.00;;;;;;;8.89;100.00;101150.69;5024027;28;20456;-40
2023/10/13 00:13:42;;;;;;;64.13;60.80;;;;;;;9.01;100.00;101155.59;5020598;28;20437;-44
2023/10/13 00:16:17;;;;;;;65.83;62.93;;;;;;;9.11;100.00;101149.00;5020772;28;20453;-44
2023/10/13 00:18:44;;;;;;;67.47;64.43;;;;;;;9.19;100.00;101146.31;5020620;28;20438;-42
2023/10/13 00:21:19;;;;;;;70.27;66.77;;;;;;;9.26;100.00;101146.41;5020266;28;20541;-44
2023/10/13 00:23:53;;;;;;;66.33;62.73;;;;;;;9.34;100.00;101141.88;5020215;28;20436;-41
2023/10/13 00:26:27;;;;;;;63.57;60.47;;;;;;;9.39;100.00;101130.69;5020037;28;20507;-41
2023/10/13 00:29:08;;;;;;;63.10;60.10;;;;;;;9.47;100.00;101137.78;5021847;28;20805;-41
2023/10/13 00:31:38;;;;;;;64.07;61.13;;;;;;;9.53;100.00;101129.06;5010269;28;20456;-41
2023/10/13 00:34:11;;;;;;;65.07;61.43;;;;;;;9.58;100.00;101121.38;5024190;28;20471;-42
2023/10/13 00:36:48;;;;;;;63.17;60.43;;;;;;;9.62;100.00;101117.31;5020193;28;20441;-39
2023/10/13 00:39:17;;;;;;;65.73;63.03;;;;;;;9.67;100.00;101117.63;5016215;28;20445;-39
2023/10/13 00:41:57;;;;;;;67.10;63.90;;;;;;;9.72;100.00;101115.22;5011762;28;20477;-41
2023/10/13 00:44:28;;;;;;;65.30;62.50;;;;;;;9.77;100.00;101118.16;5019631;28;20456;-42
2023/10/13 00:46:56;;;;;;;61.47;58.47;;;;;;;9.82;100.00;101103.31;5017721;28;20453;-40
2023/10/13 00:49:24;;;;;;;65.63;62.87;;;;;;;9.85;100.00;101102.13;5014006;28;20864;-41
2023/10/13 00:51:52;;;;;;;63.90;60.90;;;;;;;9.90;100.00;101105.06;5012117;28;20813;-42
2023/10/13 00:54:26;;;;;;;68.67;65.63;;;;;;;9.92;100.00;101095.84;5011341;28;20802;-47
2023/10/13 00:57:04;;;;;;;63.47;60.87;;;;;;;9.96;100.00;101099.00;5012980;28;20869;-44
2023/10/13 00:59:36;;;;;;;64.03;61.10;;;;;;;9.98;100.00;101084.47;5019805;28;20458;-42
2023/10/13 01:02:37;;;;;;;62.63;59.80;;;;;;;10.02;100.00;101082.28;5019760;28;20895;-39
2023/10/13 01:04:54;;;;;;;66.43;63.43;;;;;;;10.04;100.00;101072.25;5019037;28;20461;-42
2023/10/13 01:07:24;;;;;;;61.00;58.40;;;;;;;10.10;100.00;101068.00;5030733;28;20440;-40
2023/10/13 01:09:51;;;;;;;61.63;59.23;;;;;;;10.15;100.00;101071.00;5022766;28;20450;-44
2023/10/13 01:12:23;;;;;;;60.47;58.23;;;;;;;10.18;100.00;101059.97;5022645;28;20449;-45
2023/10/13 01:14:50;;;;;;;59.30;56.90;;;;;;;10.22;100.00;101055.91;5019371;28;21016;-44
2023/10/13 01:17:18;;;;;;;64.17;61.03;;;;;;;10.24;100.00;101054.72;5020082;28;20524;-42
2023/10/13 01:19:45;;;;;;;63.67;60.73;;;;;;;10.30;100.00;101061.13;5027859;28;20437;-39
2023/10/13 01:22:13;;;;;;;62.47;59.63;;;;;;;10.33;100.00;101058.94;5014905;28;20503;-42
2023/10/13 01:24:42;;;;;;;67.30;64.30;;;;;;;10.39;100.00;101057.34;5010813;28;20465;-40
2023/10/13 01:27:17;;;;;;;64.70;61.67;;;;;;;10.41;100.00;101056.16;5013523;28;20481;-42
2023/10/13 01:29:47;;;;;;;65.90;62.97;;;;;;;10.43;100.00;101045.28;5015037;28;20443;-41
2023/10/13 01:32:16;;;;;;;68.50;65.70;;;;;;;10.48;100.00;101041.03;5018457;28;20460;-41
2023/10/13 01:34:46;;;;;;;69.53;66.27;;;;;;;10.52;100.00;101030.81;5018752;28;20480;-41
2023/10/13 01:37:15;;;;;;;70.73;67.90;;;;;;;10.55;100.00;101033.94;5019495;28;20503;-41
2023/10/13 01:39:47;;;;;;;73.43;70.53;;;;;;;10.61;100.00;101034.19;5019507;28;20456;-44
2023/10/13 01:42:19;;;;;;;78.13;74.80;;;;;;;10.66;100.00;101023.78;5019216;28;20578;-40
2023/10/13 01:44:47;;;;;;;81.60;78.53;;;;;;;10.69;100.00;101020.75;5019022;28;20465;-43
2023/10/13 01:47:16;;;;;;;80.67;77.20;;;;;;;10.72;100.00;101010.50;5019442;28;20461;-42
2023/10/13 01:49:47;;;;;;;79.87;76.57;;;;;;;10.75;100.00;101004.78;5019372;28;20861;-41
2023/10/13 01:52:15;;;;;;;84.10;80.33;;;;;;;10.78;100.00;101011.59;5019261;28;20886;-43
2023/10/13 01:54:45;;;;;;;80.83;77.03;;;;;;;10.81;100.00;100989.88;5019082;28;20464;-42
2023/10/13 01:57:14;;;;;;;82.50;79.03;;;;;;;10.84;100.00;100995.63;5019056;28;20465;-41
2023/10/13 01:59:43;;;;;;;81.73;78.63;;;;;;;10.87;100.00;100983.78;5022135;28;20428;-40
2023/10/13 02:02:12;;;;;;;88.17;84.47;;;;;;;10.90;100.00;100970.84;5022347;28;20480;-41
2023/10/13 02:04:48;;;;;;;92.47;88.73;;;;;;;10.93;100.00;100969.66;5019227;28;20464;-41
2023/10/13 02:07:16;;;;;;;91.00;87.03;;;;;;;10.96;100.00;100966.63;5019271;28;20568;-41
2023/10/13 02:09:45;;;;;;;90.30;86.90;;;;;;;10.98;100.00;100964.56;5018857;28;20947;-39
2023/10/13 02:12:15;;;;;;;92.10;88.10;;;;;;;10.98;100.00;100953.88;5018941;28;20448;-41
2023/10/13 02:14:42;;;;;;;94.67;90.67;;;;;;;10.98;100.00;100944.03;5022028;28;20545;-41
2023/10/13 02:17:13;;;;;;;96.10;91.97;;;;;;;11.00;100.00;100943.84;5024356;28;20428;-39
2023/10/13 02:19:44;;;;;;;90.97;87.10;;;;;;;11.00;100.00;100941.16;5023206;28;20804;-41
2023/10/13 02:22:24;;;;;;;94.93;91.03;;;;;;;11.00;100.00;100933.16;5022843;28;20455;-43
2023/10/13 02:24:52;;;;;;;96.70;92.40;;;;;;;11.00;100.00;100927.81;5022409;28;20463;-44
2023/10/13 02:27:23;;;;;;;91.77;87.80;;;;;;;11.00;100.00;100922.50;5028365;28;20498;-43
2023/10/13 02:29:50;;;;;;;91.20;86.90;;;;;;;11.01;100.00;100929.50;5022670;28;20519;-46
2023/10/13 02:32:19;;;;;;;95.40;90.63;;;;;;;11.00;100.00;100919.81;5022726;28;20449;-43
2023/10/13 02:34:46;;;;;;;99.30;93.53;;;;;;;10.97;100.00;100910.38;5022256;28;20461;-43
2023/10/13 02:37:14;;;;;;;87.77;84.03;;;;;;;10.96;100.00;100908.72;5022389;28;20517;-38
2023/10/13 02:39:41;;;;;;;87.73;83.73;;;;;;;10.96;100.00;100906.03;5022174;28;20487;-40
2023/10/13 02:42:22;;;;;;;87.80;83.60;;;;;;;10.97;100.00;100909.53;5022623;28;20511;-41
2023/10/13 02:44:49;;;;;;;85.17;81.60;;;;;;;10.95;100.00;100904.41;5022223;28;20565;-42
2023/10/13 02:47:19;;;;;;;86.47;82.17;;;;;;;10.96;100.00;100894.56;5022164;28;20535;-40
2023/10/13 02:49:47;;;;;;;83.10;79.13;;;;;;;10.97;100.00;100883.69;5022060;28;20437;-42
2023/10/13 02:52:15;;;;;;;87.20;83.60;;;;;;;10.97;100.00;100880.19;5022430;28;20452;-43
2023/10/13 02:54:47;;;;;;;83.10;79.63;;;;;;;10.97;100.00;100870.34;5024875;28;20462;-42
2023/10/13 02:57:16;;;;;;;89.27;84.77;;;;;;;10.98;100.00;100868.50;5025912;28;20582;-43
2023/10/13 02:59:46;;;;;;;83.97;80.20;;;;;;;10.99;100.00;100862.94;5022319;28;20487;-42
2023/10/13 03:02:23;;;;;;;82.30;78.80;;;;;;;11.00;100.00;100864.63;5021969;28;20535;-44
2023/10/13 03:04:51;;;;;;;85.67;81.77;;;;;;;11.02;100.00;100864.44;5022025;28;20827;-42
2023/10/13 03:07:23;;;;;;;87.97;83.80;;;;;;;11.05;100.00;100856.84;5022258;28;20528;-44
2023/10/13 03:09:50;;;;;;;88.90;85.10;;;;;;;11.07;100.00;100853.97;5022102;28;20442;-40
2023/10/13 03:12:21;;;;;;;86.97;83.37;;;;;;;11.09;100.00;100846.59;5022055;28;20493;-39
2023/10/13 03:14:48;;;;;;;93.93;89.20;;;;;;;11.09;100.00;100846.59;5017052;28;20456;-43
2023/10/13 03:17:17;;;;;;;98.67;94.47;;;;;;;11.09;100.00;100843.94;5025456;28;20799;-42
2023/10/13 03:19:49;;;;;;;97.00;92.20;;;;;;;11.09;100.00;100851.94;5022035;28;20595;-40
2023/10/13 03:22:18;;;;;;;102.40;97.43;;;;;;;11.13;100.00;100836.34;5021699;28;20505;-42
2023/10/13 03:24:46;;;;;;;102.60;98.33;;;;;;;11.11;100.00;100840.03;5024495;28;21003;-40
2023/10/13 03:27:16;;;;;;;106.47;101.07;;;;;;;11.15;100.00;100837.78;5024672;28;20439;-40
2023/10/13 03:29:47;;;;;;;104.60;99.60;;;;;;;11.17;100.00;100824.28;5021886;28;20468;-42
2023/10/13 03:32:17;;;;;;;108.23;102.43;;;;;;;11.21;100.00;100823.66;5021817;28;20445;-40
2023/10/13 03:35:05;;;;;;;108.77;103.27;;;;;;;11.23;100.00;100812.81;5021017;28;20544;-42
2023/10/13 03:37:38;;;;;;;113.07;106.77;;;;;;;11.25;100.00;100806.22;5023020;28;21004;-42
2023/10/13 03:40:15;;;;;;;110.20;104.73;;;;;;;11.28;100.00;100807.69;5021724;28;20441;-38
2023/10/13 03:42:49;;;;;;;114.50;108.00;;;;;;;11.36;100.00;100794.16;5019007;28;21002;-37
2023/10/13 03:45:18;;;;;;;112.40;106.50;;;;;;;11.36;100.00;100789.63;5018767;28;20544;-39
2023/10/13 03:47:46;;;;;;;124.83;116.43;;;;;;;11.38;100.00;100781.44;5038473;28;20508;-39
2023/10/13 03:50:22;;;;;;;119.73;112.43;;;;;;;11.41;100.00;100773.03;5031414;28;20491;-38
2023/10/13 03:52:49;;;;;;;126.10;117.30;;;;;;;11.43;100.00;100758.44;5030957;28;20466;-42
2023/10/13 03:55:18;;;;;;;125.37;117.97;;;;;;;11.46;100.00;100749.19;5038001;28;20468;-40
2023/10/13 03:57:50;;;;;;;125.83;117.10;;;;;;;11.49;100.00;100733.59;5019354;28;20494;-39
2023/10/13 04:00:28;;;;;;;132.63;123.97;;;;;;;11.53;100.00;100753.53;5034393;28;20463;-41
2023/10/13 04:03:08;;;;;;;130.40;121.50;;;;;;;11.58;100.00;100744.91;5025897;28;20820;-40
2023/10/13 04:05:40;;;;;;;134.37;123.37;;;;;;;11.62;100.00;100749.63;5025946;28;20461;-37
2023/10/13 04:16:54;;;;;;;143.93;132.83;;;;;;;11.77;100.00;100721.97;5034322;28;20436;-41
2023/10/13 04:19:26;;;;;;;144.70;133.40;;;;;;;11.80;100.00;100710.88;5029916;28;20429;-37
2023/10/13 04:21:59;;;;;;;143.17;132.13;;;;;;;11.83;100.00;100710.44;5030600;28;20456;-43
2023/10/13 04:25:00;;;;;;;143.93;135.27;;;;;;;11.84;100.00;100698.72;5021275;28;20476;-39
2023/10/13 04:27:39;;;;;;;137.47;129.23;;;;;;;11.86;100.00;100694.81;5033436;28;20436;-39
2023/10/13 04:30:19;;;;;;;129.53;121.47;;;;;;;11.90;100.00;100689.88;5029307;28;20443;-39
2023/10/13 04:33:06;;;;;;;131.80;121.90;;;;;;;11.92;100.00;100685.97;5026722;28;20460;-39
2023/10/13 04:35:47;;;;;;;133.50;123.93;;;;;;;11.95;100.00;100671.38;5017439;28;20463;-37
2023/10/13 04:38:19;;;;;;;130.23;121.93;;;;;;;11.96;100.00;100676.53;5017801;28;20769;-42
2023/10/13 04:41:01;;;;;;;129.57;121.37;;;;;;;11.98;100.00;100663.78;5033771;28;20461;-41
2023/10/13 04:43:55;;;;;;;130.87;122.13;;;;;;;11.99;100.00;100660.06;5017754;28;20472;-42
2023/10/13 04:46:35;;;;;;;130.27;122.03;;;;;;;12.02;100.00;100651.66;5037556;28;20808;-44
2023/10/13 04:49:10;;;;;;;127.97;119.83;;;;;;;12.04;100.00;100644.22;5022910;28;20440;-42
2023/10/13 04:51:59;;;;;;;134.60;125.53;;;;;;;12.07;100.00;100629.63;5027569;28;20559;-39
2023/10/13 04:54:26;;;;;;;136.93;126.83;;;;;;;12.07;100.00;100616.25;5033607;28;21039;-40
2023/10/13 04:57:19;;;;;;;123.87;117.17;;;;;;;12.11;100.00;100606.81;5018111;28;20468;-39
2023/10/13 05:05:45;;;;;;;131.93;123.83;;;;;;;12.24;100.00;100603.28;5022190;28;20835;-39
2023/10/13 05:47:23;;;;;;;142.07;129.00;;;;;;;12.63;100.00;100522.88;5017112;28;20433;-43
2023/10/13 05:49:50;;;;;;;138.30;125.30;;;;;;;12.66;100.00;100517.88;5019521;28;20490;-38
2023/10/13 06:31:07;;;;;;;150.23;136.43;;;;;;;13.38;100.00;100486.28;5020460;28;20460;-41
2023/10/13 06:33:34;;;;;;;139.50;128.10;;;;;;;13.42;100.00;100485.59;5019655;28;20445;-41
2023/10/13 06:36:03;;;;;;;144.03;131.67;;;;;;;13.46;100.00;100477.94;5019760;28;20492;-39
2023/10/13 06:38:36;;;;;;;144.77;132.47;;;;;;;13.50;100.00;100474.59;5020326;28;20487;-39
2023/10/13 06:41:05;;;;;;;144.27;133.33;;;;;;;13.54;100.00;100470.44;5028549;28;21116;-38
2023/10/13 06:43:39;;;;;;;139.63;128.83;;;;;;;13.58;100.00;100465.47;5020475;28;20491;-38
2023/10/13 06:46:07;;;;;;;142.63;132.47;;;;;;;13.61;100.00;100468.50;5032729;28;20454;-39
2023/10/13 06:48:35;;;;;;;150.10;137.07;;;;;;;13.65;100.00;100452.81;5023750;28;20445;-41
2023/10/13 06:51:17;;;;;;;152.93;139.97;;;;;;;13.70;100.00;100459.13;5026789;28;20461;-45
2023/10/13 06:53:47;;;;;;;137.63;129.70;;;;;;;13.76;100.00;100438.66;5021442;28;20436;-42
2023/10/13 06:56:17;;;;;;;136.43;126.80;;;;;;;13.80;100.00;100445.19;5034362;28;20483;-39
2023/10/13 06:58:47;;;;;;;139.57;130.83;;;;;;;13.85;100.00;100440.00;5038178;28;20440;-44
2023/10/13 07:01:16;;;;;;;135.37;125.47;;;;;;;13.89;100.00;100432.34;5034056;28;20461;-40
2023/10/13 07:03:44;;;;;;;127.97;120.60;;;;;;;13.93;100.00;100423.59;5020141;28;20493;-41
2023/10/13 07:06:17;;;;;;;132.43;123.87;;;;;;;14.01;100.00;100414.44;5031301;28;21065;-38
2023/10/13 07:08:51;;;;;;;132.20;124.27;;;;;;;14.06;100.00;100410.03;5023218;28;20784;-38
2023/10/13 07:11:22;;;;;;;135.47;126.60;;;;;;;14.11;100.00;100412.84;5032197;28;20885;-44
2023/10/13 07:13:52;;;;;;;130.07;122.13;;;;;;;14.20;100.00;100405.28;5029649;28;20436;-39
2023/10/13 07:16:19;;;;;;;132.67;124.57;;;;;;;14.27;100.00;100403.34;5024848;28;20429;-38
2023/10/13 07:19:04;;;;;;;134.87;127.47;;;;;;;14.33;100.00;100395.22;5019522;28;20448;-38
2023/10/13 07:21:32;;;;;;;136.50;128.43;;;;;;;14.41;100.00;100388.69;5027347;28;20451;-38
2023/10/13 07:24:08;;;;;;;139.73;130.97;;;;;;;14.48;100.00;100378.69;5027483;28;20437;-37
2023/10/13 07:26:42;;;;;;;134.40;126.50;;;;;;;14.55;100.00;100362.47;5027896;28;20429;-37
2023/10/13 07:29:12;;;;;;;140.13;131.57;;;;;;;14.60;100.00;100373.34;5027751;28;20858;-40
2023/10/13 07:31:41;;;;;;;137.10;128.70;;;;;;;14.65;100.00;100368.09;5028068;28;20449;-42
2023/10/13 07:34:20;;;;;;;142.87;134.33;;;;;;;14.70;100.00;100358.28;5019030;28;20453;-43
2023/10/13 07:36:49;;;;;;;146.83;137.60;;;;;;;14.74;100.00;100351.41;5027511;28;20436;-39
2023/10/13 07:39:23;;;;;;;139.57;131.17;;;;;;;14.79;100.00;100348.03;5019184;28;20429;-39
2023/10/13 07:42:03;;;;;;;138.77;130.57;;;;;;;14.82;100.00;100343.00;5018857;28;20458;-42
2023/10/13 07:44:34;;;;;;;145.97;137.87;;;;;;;14.92;100.00;100339.75;5026890;28;20900;-39
2023/10/13 07:47:07;;;;;;;140.20;131.93;;;;;;;15.00;100.00;100330.50;5022300;28;20773;-38
2023/10/13 07:49:39;;;;;;;144.00;135.80;;;;;;;15.05;100.00;100319.88;5022372;28;20444;-38
2023/10/13 07:52:23;;;;;;;146.37;137.37;;;;;;;15.11;100.00;100321.63;5019018;28;20449;-40
2023/10/13 07:55:10;;;;;;;147.17;138.13;;;;;;;15.13;100.00;100304.22;5029624;28;20452;-42
2023/10/13 07:57:53;;;;;;;146.13;136.77;;;;;;;15.20;100.00;100310.25;5021890;28;20928;-44
2023/10/13 08:00:46;;;;;;;155.97;146.97;;;;;;;15.23;100.00;100306.31;5018620;28;20433;-37
2023/10/13 08:03:43;;;;;;;149.60;140.40;;;;;;;15.31;100.00;100293.31;5021678;28;20491;-40
2023/10/13 08:06:21;;;;;;;152.17;143.87;;;;;;;15.38;100.00;100293.19;5021011;28;21000;-41
2023/10/13 08:08:54;;;;;;;151.40;143.13;;;;;;;15.46;100.00;100287.44;5022703;28;20433;-44
2023/10/13 08:11:34;;;;;;;145.53;137.47;;;;;;;15.54;100.00;100281.69;5018147;28;20445;-44
2023/10/13 08:14:11;;;;;;;153.43;145.70;;;;;;;15.58;100.00;100282.84;5022566;28;20928;-46
2023/10/13 08:17:00;;;;;;;153.37;144.93;;;;;;;15.65;100.00;100272.75;5015939;28;20436;-41
2023/10/13 08:19:39;;;;;;;155.87;148.37;;;;;;;15.71;100.00;100273.69;5017615;28;20544;-40
2023/10/13 08:22:23;;;;;;;154.23;146.53;;;;;;;15.78;100.00;100269.78;5020885;28;20952;-43
2023/10/13 08:27:49;;;;;;;154.10;146.27;;;;;;;15.86;100.00;100264.00;5015551;28;20438;-41
2023/10/13 08:30:26;;;;;;;153.87;146.17;;;;;;;15.94;100.00;100247.50;5024097;28;20493;-41
2023/10/13 08:32:56;;;;;;;160.00;152.40;;;;;;;15.99;100.00;100236.81;5021426;28;21044;-44
2023/10/13 08:35:34;;;;;;;152.60;145.03;;;;;;;16.05;100.00;100233.16;5018262;28;20885;-39
2023/10/13 08:38:13;;;;;;;150.00;143.10;;;;;;;16.08;100.00;100229.16;5020469;28;20990;-41
2023/10/13 08:43:50;;;;;;;150.77;143.93;;;;;;;16.16;100.00;100230.63;5022444;28;20490;-40
2023/10/13 08:46:29;;;;;;;152.90;146.10;;;;;;;16.16;100.00;100227.94;5011909;28;20482;-45
2023/10/13 08:49:15;;;;;;;154.37;147.57;;;;;;;16.15;100.00;100220.91;5023000;28;20432;-42
2023/10/13 08:51:44;;;;;;;154.83;147.73;;;;;;;16.14;100.00;100216.59;5022899;28;20448;-42
2023/10/13 08:56:56;;;;;;;154.43;147.50;;;;;;;16.20;100.00;100191.41;5020160;28;20521;-44
2023/10/13 08:59:33;;;;;;;157.63;150.50;;;;;;;16.26;100.00;100187.72;5018165;28;20436;-42
2023/10/13 09:02:15;;;;;;;150.33;143.83;;;;;;;16.28;100.00;100193.66;5012190;28;20535;-44
2023/10/13 09:04:47;;;;;;;148.77;142.53;;;;;;;16.34;100.00;100182.72;5019878;28;20464;-42
2023/10/13 09:07:21;;;;;;;148.37;142.17;;;;;;;16.39;100.00;100180.13;5023602;28;20472;-42
2023/10/13 09:09:59;;;;;;;148.20;142.40;;;;;;;16.38;100.00;100173.09;5013316;28;20852;-40
2023/10/13 09:12:38;;;;;;;156.70;150.60;;;;;;;16.41;100.00;100152.94;5019886;28;20444;-41
2023/10/13 09:15:18;;;;;;;154.50;148.30;;;;;;;16.40;100.00;100154.00;5019496;28;20461;-41
2023/10/13 09:17:52;;;;;;;154.07;147.90;;;;;;;16.37;100.00;100152.63;5020857;28;20479;-40
2023/10/13 09:20:42;;;;;;;153.87;147.87;;;;;;;16.36;100.00;100139.44;5023182;28;20483;-43
2023/10/13 09:23:12;;;;;;;159.10;153.00;;;;;;;16.36;100.00;100132.19;5023311;28;20765;-47
2023/10/13 09:25:53;;;;;;;161.83;155.47;;;;;;;16.32;100.00;100122.97;5022172;28;20559;-42
2023/10/13 09:28:22;;;;;;;161.40;154.80;;;;;;;16.31;100.00;100115.13;5019873;28;20782;-43
2023/10/13 09:30:52;;;;;;;157.37;151.17;;;;;;;16.27;100.00;100114.03;5020720;28;20483;-40
2023/10/13 09:33:28;;;;;;;162.47;156.17;;;;;;;16.24;100.00;100111.84;5022985;28;20436;-44
2023/10/13 09:35:59;;;;;;;163.33;156.90;;;;;;;16.25;100.00;100102.69;5020528;28;20890;-42
2023/10/13 09:38:27;;;;;;;159.57;153.30;;;;;;;16.28;100.00;100112.94;5019632;28;20444;-42
2023/10/13 09:40:57;;;;;;;156.07;149.83;;;;;;;16.27;100.00;100105.94;5021292;28;20464;-44
2023/10/13 09:43:27;;;;;;;167.97;161.33;;;;;;;16.28;100.00;100111.06;5023008;28;20440;-42
2023/10/13 09:46:01;;;;;;;161.93;155.30;;;;;;;16.29;100.00;100093.06;5020597;28;20555;-42
2023/10/13 09:48:33;;;;;;;164.97;158.07;;;;;;;16.33;100.00;100094.19;5019587;28;20428;-40
2023/10/13 09:51:04;;;;;;;162.37;155.93;;;;;;;16.35;100.00;100089.38;5022073;28;20511;-40
2023/10/13 09:53:33;;;;;;;162.90;156.40;;;;;;;16.44;100.00;100079.78;5023057;28;21003;-45
2023/10/13 09:56:11;;;;;;;169.73;162.93;;;;;;;16.51;100.00;100072.34;5019540;28;20491;-40
2023/10/13 09:58:57;;;;;;;168.23;161.53;;;;;;;16.58;100.00;100059.53;5019295;28;20441;-42
2023/10/13 10:01:31;;;;;;;163.97;157.43;;;;;;;16.63;100.00;100062.31;5019218;28;20457;-43
2023/10/13 10:04:08;;;;;;;170.00;163.20;;;;;;;16.59;100.00;100058.47;5021202;28;20491;-40
2023/10/13 10:06:44;;;;;;;171.70;164.70;;;;;;;16.60;100.00;100073.56;5022619;28;20475;-41
2023/10/13 10:09:11;;;;;;;171.63;164.53;;;;;;;16.57;100.00;100071.38;5022628;28;20475;-45
2023/10/13 10:12:08;;;;;;;183.30;175.90;;;;;;;16.53;100.00;100056.75;5022405;28;20459;-42
2023/10/13 10:15:00;;;;;;;180.03;172.50;;;;;;;16.52;100.00;100049.75;5022214;28;20494;-44
2023/10/13 10:17:29;;;;;;;181.90;174.33;;;;;;;16.53;100.00;100049.50;5014695;28;20433;-44
2023/10/13 10:19:57;;;;;;;185.47;177.73;;;;;;;16.52;100.00;100055.94;5020245;28;20447;-44
2023/10/13 10:22:33;;;;;;;192.77;184.70;;;;;;;16.59;100.00;100034.25;5016841;28;20452;-47
2023/10/13 10:25:02;;;;;;;194.63;186.23;;;;;;;16.58;100.00;100030.72;5011426;28;20464;-47
2023/10/13 10:27:32;;;;;;;200.70;191.97;;;;;;;16.60;100.00;100022.44;5019671;28;20479;-42
2023/10/13 10:30:03;;;;;;;208.20;199.10;;;;;;;16.64;100.00;100009.25;5020185;28;20460;-44
2023/10/13 10:32:35;;;;;;;208.23;198.70;;;;;;;16.61;100.00;100026.72;5010756;28;20484;-43
2023/10/13 10:35:14;;;;;;;212.33;202.83;;;;;;;16.58;100.00;100005.69;5021097;28;20460;-43
2023/10/13 10:37:47;;;;;;;224.03;213.83;;;;;;;16.47;100.00;99995.88;5023739;28;20846;-41
2023/10/13 10:40:33;;;;;;;226.00;215.80;;;;;;;16.40;100.00;99974.53;5022489;28;20840;-41
2023/10/13 10:43:03;;;;;;;227.13;216.60;;;;;;;16.43;100.00;99981.28;5022902;28;20524;-41
2023/10/13 10:45:50;;;;;;;237.80;227.20;;;;;;;16.41;100.00;99957.31;5014451;28;20456;-44
2023/10/13 10:48:18;;;;;;;229.43;219.23;;;;;;;16.45;100.00;99952.25;5021576;28;20494;-42
2023/10/13 10:50:54;;;;;;;228.50;218.30;;;;;;;16.52;100.00;99944.78;5022322;28;20433;-43
2023/10/13 10:53:33;;;;;;;231.90;221.30;;;;;;;16.59;100.00;99937.34;5025809;28;20471;-41
2023/10/13 10:56:16;;;;;;;235.00;224.30;;;;;;;16.65;100.00;99928.25;5023357;28;20538;-45
2023/10/13 10:58:44;;;;;;;233.37;222.60;;;;;;;16.71;100.00;99921.84;5022492;28;20782;-44
2023/10/13 11:01:18;;;;;;;236.20;224.97;;;;;;;16.83;100.00;99914.41;5022230;28;20507;-45
2023/10/13 11:03:57;;;;;;;237.73;227.40;;;;;;;16.90;100.00;99908.81;5022000;28;20435;-42
2023/10/13 11:06:26;;;;;;;234.67;224.27;;;;;;;16.97;100.00;99906.69;5025830;28;20494;-42
2023/10/13 11:09:18;;;;;;;248.27;237.10;;;;;;;16.86;100.00;99899.59;5024338;28;20431;-43
2023/10/13 11:11:52;;;;;;;253.53;241.47;;;;;;;16.81;100.00;99889.63;5030177;28;20456;-39
2023/10/13 11:14:23;;;;;;;263.20;251.43;;;;;;;16.81;100.00;99888.81;5021716;28;20453;-41
2023/10/13 11:16:54;;;;;;;254.87;243.67;;;;;;;16.76;100.00;99877.97;5022852;28;20425;-43
2023/10/13 11:19:27;;;;;;;260.33;248.80;;;;;;;16.76;100.00;99868.03;5025545;28;20464;-39
2023/10/13 11:21:56;;;;;;;254.53;243.33;;;;;;;16.78;100.00;99848.94;5024032;28;20463;-44
2023/10/13 11:24:25;;;;;;;258.73;247.03;;;;;;;16.74;100.00;99823.59;5021404;28;20448;-42
2023/10/13 11:26:54;;;;;;;256.57;244.90;;;;;;;16.66;100.00;99867.97;5022381;28;20475;-48
2023/10/13 11:29:33;;;;;;;261.80;249.73;;;;;;;16.58;100.00;99861.16;5025169;28;20450;-47
2023/10/13 11:32:02;;;;;;;261.83;249.77;;;;;;;16.54;100.00;99830.47;5015066;28;21052;-42
2023/10/13 11:34:39;;;;;;;268.10;256.30;;;;;;;16.48;100.00;99833.34;5019041;28;20464;-44
2023/10/13 11:39:51;;;;;;;254.70;243.27;;;;;;;16.49;100.00;99827.69;5021590;28;20804;-42
2023/10/13 11:42:20;;;;;;;251.37;240.07;;;;;;;16.48;100.00;99819.88;5024975;28;20455;-42
2023/10/13 11:45:01;;;;;;;248.07;236.90;;;;;;;16.47;100.00;99820.94;5024386;28;20481;-40
2023/10/13 11:47:47;;;;;;;248.13;236.53;;;;;;;16.59;100.00;99811.66;5021354;28;20531;-42
2023/10/13 11:50:31;;;;;;;235.33;224.37;;;;;;;16.66;100.00;99792.59;5021576;28;20441;-44
2023/10/13 11:52:59;;;;;;;232.00;220.70;;;;;;;16.73;100.00;99787.78;5022941;28;20457;-45
2023/10/13 11:55:31;;;;;;;226.43;216.10;;;;;;;16.85;100.00;99782.19;5024440;28;20466;-44
2023/10/13 11:57:59;;;;;;;236.80;226.00;;;;;;;16.85;100.00;99774.09;5023088;28;20432;-43
2023/10/13 12:00:50;;;;;;;237.07;225.80;;;;;;;16.95;100.00;99764.22;5018390;28;20432;-43
2023/10/13 12:06:18;;;;;;;229.13;218.00;;;;;;;17.05;100.00;99769.63;5015894;28;20539;-45
2023/10/13 12:08:51;;;;;;;229.83;219.23;;;;;;;17.09;100.00;99769.94;5024374;28;20490;-45
2023/10/13 12:11:32;;;;;;;224.27;213.87;;;;;;;17.25;100.00;99754.66;5020682;28;20511;-40
2023/10/13 12:14:11;;;;;;;218.20;207.27;;;;;;;17.44;100.00;99734.25;5028805;28;20438;-42
2023/10/13 12:16:39;;;;;;;220.27;209.87;;;;;;;17.56;100.00;99724.84;5020901;28;20441;-41
2023/10/13 12:19:10;;;;;;;220.80;210.43;;;;;;;17.59;100.00;99726.22;5014894;28;20441;-40
2023/10/13 12:21:38;;;;;;;231.13;219.90;;;;;;;17.68;100.00;99738.09;5017431;28;20464;-41
2023/10/13 12:24:11;;;;;;;234.37;223.13;;;;;;;17.73;100.00;99708.44;5022839;28;20507;-42
2023/10/13 12:26:42;;;;;;;222.93;211.90;;;;;;;17.77;100.00;99727.59;5018963;28;20456;-41
2023/10/13 12:29:22;;;;;;;229.47;218.70;;;;;;;17.86;100.00;99732.16;5020556;28;20441;-43
2023/10/13 12:32:05;;;;;;;226.17;215.60;;;;;;;17.98;100.00;99721.16;5020849;28;20453;-39
2023/10/13 12:34:56;;;;;;;228.60;218.33;;;;;;;18.04;100.00;99696.56;5023648;28;20545;-48
2023/10/13 12:49:03;;;;;;;227.37;217.07;;;;;;;18.23;100.00;99667.16;5005784;28;20478;-42
2023/10/13 12:51:51;;;;;;;236.97;225.90;;;;;;;18.30;100.00;99678.47;5023546;28;20455;-45
2023/10/13 12:54:27;;;;;;;241.40;230.43;;;;;;;18.34;100.00;99674.13;5019876;28;20463;-43
2023/10/13 12:56:57;;;;;;;241.10;229.57;;;;;;;18.46;100.00;99679.25;5020756;28;20495;-44
2023/10/13 12:59:27;;;;;;;241.63;230.43;;;;;;;18.46;100.00;99671.13;5023629;28;20464;-42
2023/10/13 13:01:55;;;;;;;237.77;225.80;;;;;;;18.49;100.00;99667.94;5022718;28;20456;-45
2023/10/13 13:04:25;;;;;;;227.10;216.40;;;;;;;18.53;100.00;99666.31;5019576;28;21043;-43
2023/10/13 13:06:53;;;;;;;216.80;206.73;;;;;;;18.59;100.00;99657.91;5020476;28;20432;-45
2023/10/13 13:09:25;;;;;;;205.23;194.60;;;;;;;18.66;100.00;99647.66;5023570;28;20435;-43
2023/10/13 13:11:57;;;;;;;220.40;210.10;;;;;;;18.71;100.00;99652.19;5023137;28;20447;-43
2023/10/13 13:14:28;;;;;;;209.17;199.77;;;;;;;18.80;100.00;99650.56;5019711;28;20480;-44
2023/10/13 13:17:04;;;;;;;205.07;195.60;;;;;;;18.83;100.00;99660.81;5020583;28;20948;-44
2023/10/13 13:19:35;;;;;;;194.00;185.03;;;;;;;18.87;100.00;99637.56;5018046;28;20455;-41
2023/10/13 13:22:04;;;;;;;193.03;183.93;;;;;;;18.90;100.00;99628.09;5011529;28;20968;-42